Terminal Aerodrome Forecast
Issued by NWS Tuscon, AZ

Home | Current Version | Previous Version | Text Only | Print | Product List | Glossary On
Versions: 1 2 3 4 5 6 7 8 9 10 11 12
000
FTUS45 KTWC 260500 RRA
TAFDUG
TAF
KDUG 260543Z 2606/2706 08005KT P6SM FEW090 FEW220
     FM260900 VRB03KT P6SM SCT220
     FM261800 21008KT P6SM BKN200
     FM262200 25012G18KT P6SM BKN180
     FM270300 22006KT P6SM OVC180=

USA.gov is the U.S. government's official web portal to all federal, state and local government web resources and services.